sensor_id;sensor_type;location;lat;lon;timestamp;P1;durP1;ratioP1;P2;durP2;ratioP2
20375;SDS011;10347;51.828;6.466;2023-07-22T00:00:42;6.70;;;4.13;;
20375;SDS011;10347;51.828;6.466;2023-07-22T00:03:08;7.65;;;4.93;;
20375;SDS011;10347;51.828;6.466;2023-07-22T00:05:33;5.28;;;4.45;;
20375;SDS011;10347;51.828;6.466;2023-07-22T00:07:59;5.63;;;4.32;;
20375;SDS011;10347;51.828;6.466;2023-07-22T00:10:24;5.95;;;4.88;;
20375;SDS011;10347;51.828;6.466;2023-07-22T00:12:50;7.60;;;5.00;;
20375;SDS011;10347;51.828;6.466;2023-07-22T00:15:16;9.68;;;5.20;;
20375;SDS011;10347;51.828;6.466;2023-07-22T00:17:41;7.40;;;5.43;;
20375;SDS011;10347;51.828;6.466;2023-07-22T00:20:07;8.57;;;5.38;;
20375;SDS011;10347;51.828;6.466;2023-07-22T00:22:36;8.07;;;5.30;;
20375;SDS011;10347;51.828;6.466;2023-07-22T00:25:04;7.45;;;5.05;;
20375;SDS011;10347;51.828;6.466;2023-07-22T00:27:37;6.75;;;5.22;;
20375;SDS011;10347;51.828;6.466;2023-07-22T00:30:04;6.10;;;5.18;;
20375;SDS011;10347;51.828;6.466;2023-07-22T00:32:32;7.15;;;5.13;;
20375;SDS011;10347;51.828;6.466;2023-07-22T00:34:58;9.93;;;5.93;;
20375;SDS011;10347;51.828;6.466;2023-07-22T00:37:24;9.18;;;5.68;;
20375;SDS011;10347;51.828;6.466;2023-07-22T00:39:50;8.30;;;6.00;;
20375;SDS011;10347;51.828;6.466;2023-07-22T00:42:16;7.32;;;5.72;;
20375;SDS011;10347;51.828;6.466;2023-07-22T00:44:41;10.82;;;6.63;;
20375;SDS011;10347;51.828;6.466;2023-07-22T00:47:07;9.00;;;6.38;;
20375;SDS011;10347;51.828;6.466;2023-07-22T00:49:33;10.80;;;6.80;;
20375;SDS011;10347;51.828;6.466;2023-07-22T00:52:01;9.10;;;7.45;;
20375;SDS011;10347;51.828;6.466;2023-07-22T00:54:28;8.30;;;6.85;;
20375;SDS011;10347;51.828;6.466;2023-07-22T00:56:54;8.20;;;6.50;;
20375;SDS011;10347;51.828;6.466;2023-07-22T00:59:21;11.02;;;7.10;;
20375;SDS011;10347;51.828;6.466;2023-07-22T01:01:47;9.52;;;6.78;;
20375;SDS011;10347;51.828;6.466;2023-07-22T01:04:13;7.65;;;6.38;;
20375;SDS011;10347;51.828;6.466;2023-07-22T01:06:42;9.85;;;7.00;;
20375;SDS011;10347;51.828;6.466;2023-07-22T01:09:09;10.43;;;7.35;;
20375;SDS011;10347;51.828;6.466;2023-07-22T01:11:34;10.90;;;7.15;;
20375;SDS011;10347;51.828;6.466;2023-07-22T01:14:00;9.75;;;7.28;;
20375;SDS011;10347;51.828;6.466;2023-07-22T01:16:26;8.15;;;7.00;;
20375;SDS011;10347;51.828;6.466;2023-07-22T01:18:52;10.57;;;7.00;;
20375;SDS011;10347;51.828;6.466;2023-07-22T01:21:19;9.32;;;7.40;;
20375;SDS011;10347;51.828;6.466;2023-07-22T01:23:47;9.82;;;6.22;;
20375;SDS011;10347;51.828;6.466;2023-07-22T01:26:13;9.32;;;7.60;;
20375;SDS011;10347;51.828;6.466;2023-07-22T01:28:39;9.60;;;7.35;;
20375;SDS011;10347;51.828;6.466;2023-07-22T01:31:04;9.98;;;7.45;;
20375;SDS011;10347;51.828;6.466;2023-07-22T01:33:30;9.38;;;7.35;;
20375;SDS011;10347;51.828;6.466;2023-07-22T01:35:56;9.95;;;7.60;;
20375;SDS011;10347;51.828;6.466;2023-07-22T01:38:22;8.00;;;6.35;;
20375;SDS011;10347;51.828;6.466;2023-07-22T01:40:48;11.23;;;7.35;;
20375;SDS011;10347;51.828;6.466;2023-07-22T01:43:13;11.10;;;8.10;;
20375;SDS011;10347;51.828;6.466;2023-07-22T01:45:39;9.95;;;6.72;;
20375;SDS011;10347;51.828;6.466;2023-07-22T01:48:04;9.90;;;6.75;;
20375;SDS011;10347;51.828;6.466;2023-07-22T01:50:31;9.45;;;6.70;;
20375;SDS011;10347;51.828;6.466;2023-07-22T01:52:57;12.63;;;7.15;;
20375;SDS011;10347;51.828;6.466;2023-07-22T01:55:22;10.88;;;7.65;;
20375;SDS011;10347;51.828;6.466;2023-07-22T01:57:48;11.00;;;7.57;;
20375;SDS011;10347;51.828;6.466;2023-07-22T02:00:14;12.02;;;8.27;;
20375;SDS011;10347;51.828;6.466;2023-07-22T02:02:40;9.80;;;7.28;;
20375;SDS011;10347;51.828;6.466;2023-07-22T02:05:07;11.68;;;7.90;;
20375;SDS011;10347;51.828;6.466;2023-07-22T02:07:34;9.07;;;7.07;;
20375;SDS011;10347;51.828;6.466;2023-07-22T02:10:00;9.63;;;7.40;;
20375;SDS011;10347;51.828;6.466;2023-07-22T02:12:25;12.35;;;7.20;;
20375;SDS011;10347;51.828;6.466;2023-07-22T02:14:51;10.07;;;7.60;;
20375;SDS011;10347;51.828;6.466;2023-07-22T02:17:16;11.32;;;7.60;;
20375;SDS011;10347;51.828;6.466;2023-07-22T02:19:42;12.32;;;8.02;;
20375;SDS011;10347;51.828;6.466;2023-07-22T02:22:08;9.50;;;6.57;;
20375;SDS011;10347;51.828;6.466;2023-07-22T02:24:34;13.23;;;7.78;;
20375;SDS011;10347;51.828;6.466;2023-07-22T02:27:00;10.82;;;8.05;;
20375;SDS011;10347;51.828;6.466;2023-07-22T02:29:26;10.93;;;7.45;;
20375;SDS011;10347;51.828;6.466;2023-07-22T02:31:51;12.95;;;8.35;;
20375;SDS011;10347;51.828;6.466;2023-07-22T02:34:17;10.80;;;7.65;;
20375;SDS011;10347;51.828;6.466;2023-07-22T02:36:42;10.55;;;7.57;;
20375;SDS011;10347;51.828;6.466;2023-07-22T02:39:08;13.00;;;7.53;;
20375;SDS011;10347;51.828;6.466;2023-07-22T02:41:36;9.82;;;7.43;;
20375;SDS011;10347;51.828;6.466;2023-07-22T02:44:02;12.38;;;8.07;;
20375;SDS011;10347;51.828;6.466;2023-07-22T02:46:31;14.13;;;8.27;;
20375;SDS011;10347;51.828;6.466;2023-07-22T02:48:57;10.10;;;7.60;;
20375;SDS011;10347;51.828;6.466;2023-07-22T02:51:23;10.55;;;7.65;;
20375;SDS011;10347;51.828;6.466;2023-07-22T02:53:49;13.32;;;8.15;;
20375;SDS011;10347;51.828;6.466;2023-07-22T02:56:15;10.15;;;7.32;;
20375;SDS011;10347;51.828;6.466;2023-07-22T02:58:40;11.07;;;7.95;;
20375;SDS011;10347;51.828;6.466;2023-07-22T03:01:07;11.75;;;8.10;;
20375;SDS011;10347;51.828;6.466;2023-07-22T03:03:34;10.52;;;7.97;;
20375;SDS011;10347;51.828;6.466;2023-07-22T03:06:00;12.77;;;8.32;;
20375;SDS011;10347;51.828;6.466;2023-07-22T03:08:26;11.18;;;7.82;;
20375;SDS011;10347;51.828;6.466;2023-07-22T03:10:52;12.25;;;8.27;;
20375;SDS011;10347;51.828;6.466;2023-07-22T03:13:18;12.85;;;7.97;;
20375;SDS011;10347;51.828;6.466;2023-07-22T03:15:43;11.82;;;7.90;;
20375;SDS011;10347;51.828;6.466;2023-07-22T03:18:09;13.15;;;8.10;;
20375;SDS011;10347;51.828;6.466;2023-07-22T03:20:36;12.27;;;8.10;;
20375;SDS011;10347;51.828;6.466;2023-07-22T03:23:02;13.73;;;8.38;;
20375;SDS011;10347;51.828;6.466;2023-07-22T03:25:28;13.60;;;8.20;;
20375;SDS011;10347;51.828;6.466;2023-07-22T03:27:58;11.70;;;7.68;;
20375;SDS011;10347;51.828;6.466;2023-07-22T03:30:28;10.82;;;7.57;;
20375;SDS011;10347;51.828;6.466;2023-07-22T03:32:53;13.07;;;8.93;;
20375;SDS011;10347;51.828;6.466;2023-07-22T03:35:19;13.90;;;8.43;;
20375;SDS011;10347;51.828;6.466;2023-07-22T03:37:44;11.13;;;7.97;;
20375;SDS011;10347;51.828;6.466;2023-07-22T03:40:10;12.10;;;7.93;;
20375;SDS011;10347;51.828;6.466;2023-07-22T03:42:48;14.35;;;8.55;;
20375;SDS011;10347;51.828;6.466;2023-07-22T03:45:15;11.60;;;8.07;;
20375;SDS011;10347;51.828;6.466;2023-07-22T03:47:41;11.70;;;8.35;;
20375;SDS011;10347;51.828;6.466;2023-07-22T03:50:08;17.77;;;9.40;;
20375;SDS011;10347;51.828;6.466;2023-07-22T03:52:34;15.38;;;8.93;;
20375;SDS011;10347;51.828;6.466;2023-07-22T03:55:00;11.00;;;7.93;;
20375;SDS011;10347;51.828;6.466;2023-07-22T03:57:28;10.60;;;7.25;;
20375;SDS011;10347;51.828;6.466;2023-07-22T03:59:54;12.65;;;8.63;;
20375;SDS011;10347;51.828;6.466;2023-07-22T04:02:20;10.02;;;7.35;;
20375;SDS011;10347;51.828;6.466;2023-07-22T04:04:46;10.98;;;7.97;;
20375;SDS011;10347;51.828;6.466;2023-07-22T04:07:11;14.13;;;8.95;;
20375;SDS011;10347;51.828;6.466;2023-07-22T04:09:37;13.20;;;8.90;;
20375;SDS011;10347;51.828;6.466;2023-07-22T04:12:03;12.00;;;8.05;;
20375;SDS011;10347;51.828;6.466;2023-07-22T04:14:29;11.88;;;8.40;;
20375;SDS011;10347;51.828;6.466;2023-07-22T04:16:55;12.27;;;8.32;;
20375;SDS011;10347;51.828;6.466;2023-07-22T04:19:20;11.77;;;8.48;;
20375;SDS011;10347;51.828;6.466;2023-07-22T04:21:46;11.23;;;8.00;;
20375;SDS011;10347;51.828;6.466;2023-07-22T04:24:11;11.60;;;7.68;;
20375;SDS011;10347;51.828;6.466;2023-07-22T04:26:37;12.40;;;8.10;;
20375;SDS011;10347;51.828;6.466;2023-07-22T04:29:02;11.35;;;8.73;;
20375;SDS011;10347;51.828;6.466;2023-07-22T04:31:28;12.38;;;7.93;;
20375;SDS011;10347;51.828;6.466;2023-07-22T04:33:53;11.77;;;7.82;;
20375;SDS011;10347;51.828;6.466;2023-07-22T04:36:19;12.85;;;8.32;;
20375;SDS011;10347;51.828;6.466;2023-07-22T04:38:45;11.07;;;7.80;;
20375;SDS011;10347;51.828;6.466;2023-07-22T04:41:10;11.95;;;7.78;;
20375;SDS011;10347;51.828;6.466;2023-07-22T04:43:36;12.80;;;8.93;;
20375;SDS011;10347;51.828;6.466;2023-07-22T04:46:01;12.52;;;8.63;;
20375;SDS011;10347;51.828;6.466;2023-07-22T04:48:27;14.25;;;9.02;;
20375;SDS011;10347;51.828;6.466;2023-07-22T04:50:52;14.40;;;8.27;;
20375;SDS011;10347;51.828;6.466;2023-07-22T04:53:18;13.88;;;8.80;;
20375;SDS011;10347;51.828;6.466;2023-07-22T04:55:43;11.70;;;7.82;;
20375;SDS011;10347;51.828;6.466;2023-07-22T04:58:09;11.55;;;8.70;;
20375;SDS011;10347;51.828;6.466;2023-07-22T05:00:35;14.48;;;9.10;;
20375;SDS011;10347;51.828;6.466;2023-07-22T05:03:02;14.07;;;9.38;;
20375;SDS011;10347;51.828;6.466;2023-07-22T05:05:28;15.18;;;8.82;;
20375;SDS011;10347;51.828;6.466;2023-07-22T05:07:54;12.43;;;8.23;;
20375;SDS011;10347;51.828;6.466;2023-07-22T05:10:20;12.75;;;7.97;;
20375;SDS011;10347;51.828;6.466;2023-07-22T05:12:45;15.38;;;8.90;;
20375;SDS011;10347;51.828;6.466;2023-07-22T05:15:11;11.95;;;8.05;;
20375;SDS011;10347;51.828;6.466;2023-07-22T05:17:38;11.93;;;8.60;;
20375;SDS011;10347;51.828;6.466;2023-07-22T05:20:04;14.90;;;8.95;;
20375;SDS011;10347;51.828;6.466;2023-07-22T05:22:37;14.73;;;9.80;;
20375;SDS011;10347;51.828;6.466;2023-07-22T05:25:07;13.65;;;8.60;;
20375;SDS011;10347;51.828;6.466;2023-07-22T05:27:33;13.13;;;8.98;;
20375;SDS011;10347;51.828;6.466;2023-07-22T05:29:59;14.68;;;9.57;;
20375;SDS011;10347;51.828;6.466;2023-07-22T05:32:25;13.52;;;8.52;;
20375;SDS011;10347;51.828;6.466;2023-07-22T05:34:51;13.13;;;8.90;;
20375;SDS011;10347;51.828;6.466;2023-07-22T05:37:16;13.05;;;8.43;;
20375;SDS011;10347;51.828;6.466;2023-07-22T05:39:42;12.82;;;9.02;;
20375;SDS011;10347;51.828;6.466;2023-07-22T05:42:07;13.40;;;8.40;;
20375;SDS011;10347;51.828;6.466;2023-07-22T05:44:33;15.82;;;9.18;;
20375;SDS011;10347;51.828;6.466;2023-07-22T05:46:58;16.67;;;9.98;;
20375;SDS011;10347;51.828;6.466;2023-07-22T05:49:24;14.93;;;10.27;;
20375;SDS011;10347;51.828;6.466;2023-07-22T05:51:49;15.07;;;9.45;;
20375;SDS011;10347;51.828;6.466;2023-07-22T05:54:15;15.10;;;9.73;;
20375;SDS011;10347;51.828;6.466;2023-07-22T05:56:41;16.50;;;9.40;;
20375;SDS011;10347;51.828;6.466;2023-07-22T05:59:06;15.15;;;9.63;;
20375;SDS011;10347;51.828;6.466;2023-07-22T06:01:32;20.02;;;10.93;;
20375;SDS011;10347;51.828;6.466;2023-07-22T06:03:57;16.70;;;10.38;;
20375;SDS011;10347;51.828;6.466;2023-07-22T06:06:23;15.38;;;8.98;;
20375;SDS011;10347;51.828;6.466;2023-07-22T06:08:49;13.02;;;9.10;;
20375;SDS011;10347;51.828;6.466;2023-07-22T06:11:14;14.63;;;9.73;;
20375;SDS011;10347;51.828;6.466;2023-07-22T06:13:40;16.88;;;10.32;;
20375;SDS011;10347;51.828;6.466;2023-07-22T06:16:05;17.63;;;10.93;;
20375;SDS011;10347;51.828;6.466;2023-07-22T06:18:31;15.98;;;10.05;;
20375;SDS011;10347;51.828;6.466;2023-07-22T06:20:57;15.25;;;10.18;;
20375;SDS011;10347;51.828;6.466;2023-07-22T06:23:22;18.40;;;10.77;;
20375;SDS011;10347;51.828;6.466;2023-07-22T06:25:48;16.27;;;9.60;;
20375;SDS011;10347;51.828;6.466;2023-07-22T06:28:16;16.15;;;10.05;;
20375;SDS011;10347;51.828;6.466;2023-07-22T06:30:41;19.52;;;10.70;;
20375;SDS011;10347;51.828;6.466;2023-07-22T06:33:07;20.20;;;11.00;;
20375;SDS011;10347;51.828;6.466;2023-07-22T06:35:32;20.65;;;10.50;;
20375;SDS011;10347;51.828;6.466;2023-07-22T06:37:58;15.23;;;10.30;;
20375;SDS011;10347;51.828;6.466;2023-07-22T06:40:24;20.17;;;12.00;;
20375;SDS011;10347;51.828;6.466;2023-07-22T06:42:50;17.42;;;10.27;;
20375;SDS011;10347;51.828;6.466;2023-07-22T06:45:15;21.15;;;12.32;;
20375;SDS011;10347;51.828;6.466;2023-07-22T06:47:41;18.50;;;11.65;;
20375;SDS011;10347;51.828;6.466;2023-07-22T06:50:07;18.83;;;11.75;;
20375;SDS011;10347;51.828;6.466;2023-07-22T06:52:32;21.30;;;10.88;;
20375;SDS011;10347;51.828;6.466;2023-07-22T06:54:58;19.40;;;11.90;;
20375;SDS011;10347;51.828;6.466;2023-07-22T06:57:24;18.70;;;10.60;;
20375;SDS011;10347;51.828;6.466;2023-07-22T06:59:51;18.77;;;10.60;;
20375;SDS011;10347;51.828;6.466;2023-07-22T07:02:20;20.30;;;11.02;;
20375;SDS011;10347;51.828;6.466;2023-07-22T07:04:46;19.52;;;11.30;;
20375;SDS011;10347;51.828;6.466;2023-07-22T07:07:12;19.60;;;10.75;;
20375;SDS011;10347;51.828;6.466;2023-07-22T07:09:37;20.45;;;10.02;;
20375;SDS011;10347;51.828;6.466;2023-07-22T07:12:03;15.20;;;9.30;;
20375;SDS011;10347;51.828;6.466;2023-07-22T07:14:29;17.63;;;9.30;;
20375;SDS011;10347;51.828;6.466;2023-07-22T07:16:55;17.88;;;10.13;;
20375;SDS011;10347;51.828;6.466;2023-07-22T07:19:20;21.00;;;11.35;;
20375;SDS011;10347;51.828;6.466;2023-07-22T07:21:46;19.77;;;11.07;;
20375;SDS011;10347;51.828;6.466;2023-07-22T07:24:12;20.52;;;11.30;;
20375;SDS011;10347;51.828;6.466;2023-07-22T07:26:37;18.63;;;10.43;;
20375;SDS011;10347;51.828;6.466;2023-07-22T07:29:03;13.07;;;9.00;;
20375;SDS011;10347;51.828;6.466;2023-07-22T07:31:28;21.33;;;10.40;;
20375;SDS011;10347;51.828;6.466;2023-07-22T07:33:54;22.10;;;10.27;;
20375;SDS011;10347;51.828;6.466;2023-07-22T07:36:19;15.15;;;9.10;;
20375;SDS011;10347;51.828;6.466;2023-07-22T07:38:45;15.27;;;10.02;;
20375;SDS011;10347;51.828;6.466;2023-07-22T07:41:10;17.20;;;10.82;;
20375;SDS011;10347;51.828;6.466;2023-07-22T07:43:37;16.67;;;9.60;;
20375;SDS011;10347;51.828;6.466;2023-07-22T07:46:17;15.73;;;8.68;;
20375;SDS011;10347;51.828;6.466;2023-07-22T07:48:50;13.63;;;8.60;;
20375;SDS011;10347;51.828;6.466;2023-07-22T07:51:17;12.77;;;8.85;;
20375;SDS011;10347;51.828;6.466;2023-07-22T07:53:44;19.35;;;10.45;;
20375;SDS011;10347;51.828;6.466;2023-07-22T07:56:12;15.02;;;9.15;;
20375;SDS011;10347;51.828;6.466;2023-07-22T07:58:39;16.88;;;9.60;;
20375;SDS011;10347;51.828;6.466;2023-07-22T08:01:05;15.77;;;9.32;;
20375;SDS011;10347;51.828;6.466;2023-07-22T08:03:31;14.23;;;9.10;;
20375;SDS011;10347;51.828;6.466;2023-07-22T08:05:58;12.98;;;7.85;;
20375;SDS011;10347;51.828;6.466;2023-07-22T08:08:23;11.52;;;8.00;;
20375;SDS011;10347;51.828;6.466;2023-07-22T08:13:27;13.85;;;8.32;;
20375;SDS011;10347;51.828;6.466;2023-07-22T08:16:07;11.73;;;8.55;;
20375;SDS011;10347;51.828;6.466;2023-07-22T08:18:34;14.88;;;8.43;;
20375;SDS011;10347;51.828;6.466;2023-07-22T08:21:01;13.10;;;8.60;;
20375;SDS011;10347;51.828;6.466;2023-07-22T08:23:28;15.82;;;9.07;;
20375;SDS011;10347;51.828;6.466;2023-07-22T08:25:54;11.65;;;8.02;;
20375;SDS011;10347;51.828;6.466;2023-07-22T08:28:20;12.82;;;8.68;;
20375;SDS011;10347;51.828;6.466;2023-07-22T08:30:47;16.40;;;8.48;;
20375;SDS011;10347;51.828;6.466;2023-07-22T08:33:13;13.10;;;8.10;;
20375;SDS011;10347;51.828;6.466;2023-07-22T08:35:39;15.13;;;8.88;;
20375;SDS011;10347;51.828;6.466;2023-07-22T08:38:05;14.65;;;9.32;;
20375;SDS011;10347;51.828;6.466;2023-07-22T08:40:38;11.73;;;7.93;;
20375;SDS011;10347;51.828;6.466;2023-07-22T08:43:06;13.95;;;8.85;;
20375;SDS011;10347;51.828;6.466;2023-07-22T08:45:34;14.05;;;8.63;;
20375;SDS011;10347;51.828;6.466;2023-07-22T08:48:05;13.73;;;7.97;;
20375;SDS011;10347;51.828;6.466;2023-07-22T08:50:34;12.73;;;8.25;;
20375;SDS011;10347;51.828;6.466;2023-07-22T08:53:00;16.02;;;9.10;;
20375;SDS011;10347;51.828;6.466;2023-07-22T08:55:26;11.00;;;7.90;;
20375;SDS011;10347;51.828;6.466;2023-07-22T08:57:52;13.43;;;8.10;;
20375;SDS011;10347;51.828;6.466;2023-07-22T09:00:19;9.38;;;6.80;;
20375;SDS011;10347;51.828;6.466;2023-07-22T09:02:45;12.50;;;8.15;;
20375;SDS011;10347;51.828;6.466;2023-07-22T09:05:11;13.95;;;8.65;;
20375;SDS011;10347;51.828;6.466;2023-07-22T09:07:37;12.30;;;7.57;;
20375;SDS011;10347;51.828;6.466;2023-07-22T09:10:04;12.25;;;8.20;;
20375;SDS011;10347;51.828;6.466;2023-07-22T09:12:32;13.48;;;7.78;;
20375;SDS011;10347;51.828;6.466;2023-07-22T09:15:05;12.25;;;7.40;;
20375;SDS011;10347;51.828;6.466;2023-07-22T09:17:35;13.57;;;8.48;;
20375;SDS011;10347;51.828;6.466;2023-07-22T09:20:01;10.57;;;6.50;;
20375;SDS011;10347;51.828;6.466;2023-07-22T09:22:28;11.95;;;7.35;;
20375;SDS011;10347;51.828;6.466;2023-07-22T09:25:02;11.77;;;7.65;;
20375;SDS011;10347;51.828;6.466;2023-07-22T09:27:37;10.88;;;7.90;;
20375;SDS011;10347;51.828;6.466;2023-07-22T09:30:03;9.68;;;6.20;;
20375;SDS011;10347;51.828;6.466;2023-07-22T09:32:52;9.48;;;7.00;;
20375;SDS011;10347;51.828;6.466;2023-07-22T09:35:24;10.98;;;6.50;;
20375;SDS011;10347;51.828;6.466;2023-07-22T09:37:52;10.32;;;6.72;;
20375;SDS011;10347;51.828;6.466;2023-07-22T09:40:25;10.05;;;6.95;;
20375;SDS011;10347;51.828;6.466;2023-07-22T09:42:52;10.40;;;6.07;;
20375;SDS011;10347;51.828;6.466;2023-07-22T09:45:20;14.43;;;7.10;;
20375;SDS011;10347;51.828;6.466;2023-07-22T09:47:48;9.10;;;6.82;;
20375;SDS011;10347;51.828;6.466;2023-07-22T09:50:18;13.27;;;7.25;;
20375;SDS011;10347;51.828;6.466;2023-07-22T09:52:51;14.25;;;7.18;;
20375;SDS011;10347;51.828;6.466;2023-07-22T09:55:22;13.48;;;6.05;;
20375;SDS011;10347;51.828;6.466;2023-07-22T09:57:53;9.07;;;6.10;;
20375;SDS011;10347;51.828;6.466;2023-07-22T10:00:19;8.45;;;6.07;;
20375;SDS011;10347;51.828;6.466;2023-07-22T10:02:48;8.30;;;5.95;;
20375;SDS011;10347;51.828;6.466;2023-07-22T10:05:18;8.30;;;5.65;;
20375;SDS011;10347;51.828;6.466;2023-07-22T10:07:45;10.20;;;6.28;;
20375;SDS011;10347;51.828;6.466;2023-07-22T10:10:14;10.85;;;5.85;;
20375;SDS011;10347;51.828;6.466;2023-07-22T10:12:41;10.07;;;6.07;;
20375;SDS011;10347;51.828;6.466;2023-07-22T10:15:09;6.03;;;5.28;;
20375;SDS011;10347;51.828;6.466;2023-07-22T10:17:37;8.45;;;6.38;;
20375;SDS011;10347;51.828;6.466;2023-07-22T10:20:03;9.35;;;5.28;;
20375;SDS011;10347;51.828;6.466;2023-07-22T10:22:33;8.30;;;5.28;;
20375;SDS011;10347;51.828;6.466;2023-07-22T10:25:00;6.53;;;5.35;;
20375;SDS011;10347;51.828;6.466;2023-07-22T10:27:29;8.18;;;5.22;;
20375;SDS011;10347;51.828;6.466;2023-07-22T10:29:56;10.68;;;5.88;;
20375;SDS011;10347;51.828;6.466;2023-07-22T10:32:21;9.50;;;5.35;;
20375;SDS011;10347;51.828;6.466;2023-07-22T10:34:47;9.02;;;5.07;;
20375;SDS011;10347;51.828;6.466;2023-07-22T10:37:13;10.43;;;5.75;;
20375;SDS011;10347;51.828;6.466;2023-07-22T10:39:38;10.88;;;5.15;;
20375;SDS011;10347;51.828;6.466;2023-07-22T10:42:04;7.80;;;5.75;;
20375;SDS011;10347;51.828;6.466;2023-07-22T10:44:31;9.70;;;5.78;;
20375;SDS011;10347;51.828;6.466;2023-07-22T10:47:03;7.40;;;4.78;;
20375;SDS011;10347;51.828;6.466;2023-07-22T10:49:42;6.82;;;4.75;;
20375;SDS011;10347;51.828;6.466;2023-07-22T10:52:10;5.65;;;4.65;;
20375;SDS011;10347;51.828;6.466;2023-07-22T10:54:38;7.13;;;4.68;;
20375;SDS011;10347;51.828;6.466;2023-07-22T10:57:04;6.65;;;4.57;;
20375;SDS011;10347;51.828;6.466;2023-07-22T10:59:49;8.80;;;5.32;;
20375;SDS011;10347;51.828;6.466;2023-07-22T11:02:34;9.55;;;4.93;;
20375;SDS011;10347;51.828;6.466;2023-07-22T11:04:59;6.13;;;5.13;;
20375;SDS011;10347;51.828;6.466;2023-07-22T11:07:34;7.90;;;4.68;;
20375;SDS011;10347;51.828;6.466;2023-07-22T11:10:13;4.85;;;3.80;;
20375;SDS011;10347;51.828;6.466;2023-07-22T11:12:44;8.15;;;4.72;;
20375;SDS011;10347;51.828;6.466;2023-07-22T11:15:10;7.07;;;4.22;;
20375;SDS011;10347;51.828;6.466;2023-07-22T11:17:37;4.50;;;3.47;;
20375;SDS011;10347;51.828;6.466;2023-07-22T11:20:03;5.20;;;4.45;;
20375;SDS011;10347;51.828;6.466;2023-07-22T11:22:29;5.15;;;3.83;;
20375;SDS011;10347;51.828;6.466;2023-07-22T11:24:55;5.38;;;3.58;;
20375;SDS011;10347;51.828;6.466;2023-07-22T11:27:22;6.03;;;4.20;;
20375;SDS011;10347;51.828;6.466;2023-07-22T11:29:48;5.38;;;3.90;;
20375;SDS011;10347;51.828;6.466;2023-07-22T11:32:15;5.57;;;3.90;;
20375;SDS011;10347;51.828;6.466;2023-07-22T11:34:41;7.25;;;3.38;;
20375;SDS011;10347;51.828;6.466;2023-07-22T11:37:09;5.28;;;4.00;;
20375;SDS011;10347;51.828;6.466;2023-07-22T11:39:35;3.97;;;3.33;;
20375;SDS011;10347;51.828;6.466;2023-07-22T11:42:03;4.55;;;3.40;;
20375;SDS011;10347;51.828;6.466;2023-07-22T11:44:29;6.25;;;3.45;;
20375;SDS011;10347;51.828;6.466;2023-07-22T11:46:57;5.57;;;3.42;;
20375;SDS011;10347;51.828;6.466;2023-07-22T11:49:39;6.57;;;3.17;;
20375;SDS011;10347;51.828;6.466;2023-07-22T11:52:08;3.60;;;3.10;;
20375;SDS011;10347;51.828;6.466;2023-07-22T11:54:37;6.15;;;3.10;;
20375;SDS011;10347;51.828;6.466;2023-07-22T11:57:22;4.50;;;3.05;;
20375;SDS011;10347;51.828;6.466;2023-07-22T11:59:49;5.03;;;3.08;;
20375;SDS011;10347;51.828;6.466;2023-07-22T12:02:17;4.93;;;2.90;;
20375;SDS011;10347;51.828;6.466;2023-07-22T12:04:51;3.83;;;3.05;;
20375;SDS011;10347;51.828;6.466;2023-07-22T12:07:27;5.43;;;3.10;;
20375;SDS011;10347;51.828;6.466;2023-07-22T12:09:54;3.75;;;3.33;;
20375;SDS011;10347;51.828;6.466;2023-07-22T12:12:21;5.45;;;3.15;;
20375;SDS011;10347;51.828;6.466;2023-07-22T12:15:00;6.68;;;3.97;;
20375;SDS011;10347;51.828;6.466;2023-07-22T12:17:44;5.50;;;3.28;;
20375;SDS011;10347;51.828;6.466;2023-07-22T12:20:17;5.90;;;3.00;;
20375;SDS011;10347;51.828;6.466;2023-07-22T12:22:43;5.28;;;3.25;;
20375;SDS011;10347;51.828;6.466;2023-07-22T12:25:08;3.83;;;3.03;;
20375;SDS011;10347;51.828;6.466;2023-07-22T12:27:34;5.68;;;3.47;;
20375;SDS011;10347;51.828;6.466;2023-07-22T12:30:01;5.85;;;3.50;;
20375;SDS011;10347;51.828;6.466;2023-07-22T12:32:27;5.45;;;2.90;;
20375;SDS011;10347;51.828;6.466;2023-07-22T12:34:53;4.85;;;2.97;;
20375;SDS011;10347;51.828;6.466;2023-07-22T12:37:18;4.65;;;2.60;;
20375;SDS011;10347;51.828;6.466;2023-07-22T12:39:44;5.78;;;3.10;;
20375;SDS011;10347;51.828;6.466;2023-07-22T12:42:10;3.50;;;3.15;;
20375;SDS011;10347;51.828;6.466;2023-07-22T12:44:35;5.03;;;3.33;;
20375;SDS011;10347;51.828;6.466;2023-07-22T12:47:01;5.68;;;3.60;;
20375;SDS011;10347;51.828;6.466;2023-07-22T12:49:27;4.93;;;3.00;;
20375;SDS011;10347;51.828;6.466;2023-07-22T12:51:52;3.58;;;2.50;;
20375;SDS011;10347;51.828;6.466;2023-07-22T12:54:18;4.53;;;2.53;;
20375;SDS011;10347;51.828;6.466;2023-07-22T12:56:43;5.53;;;2.05;;
20375;SDS011;10347;51.828;6.466;2023-07-22T12:59:09;3.33;;;1.85;;
20375;SDS011;10347;51.828;6.466;2023-07-22T13:01:35;2.05;;;1.85;;
20375;SDS011;10347;51.828;6.466;2023-07-22T13:04:03;2.03;;;1.80;;
20375;SDS011;10347;51.828;6.466;2023-07-22T13:06:29;2.55;;;1.60;;
20375;SDS011;10347;51.828;6.466;2023-07-22T13:08:55;2.10;;;1.83;;
20375;SDS011;10347;51.828;6.466;2023-07-22T13:11:20;3.03;;;2.08;;
20375;SDS011;10347;51.828;6.466;2023-07-22T13:13:46;4.88;;;1.70;;
20375;SDS011;10347;51.828;6.466;2023-07-22T13:16:11;3.25;;;1.98;;
20375;SDS011;10347;51.828;6.466;2023-07-22T13:18:37;3.25;;;1.70;;
20375;SDS011;10347;51.828;6.466;2023-07-22T13:21:02;3.30;;;2.25;;
20375;SDS011;10347;51.828;6.466;2023-07-22T13:23:28;2.58;;;2.10;;
20375;SDS011;10347;51.828;6.466;2023-07-22T13:25:53;2.00;;;1.85;;
20375;SDS011;10347;51.828;6.466;2023-07-22T13:28:19;2.30;;;1.60;;
20375;SDS011;10347;51.828;6.466;2023-07-22T13:30:44;3.03;;;2.00;;
20375;SDS011;10347;51.828;6.466;2023-07-22T13:33:10;2.60;;;1.90;;
20375;SDS011;10347;51.828;6.466;2023-07-22T13:35:35;2.30;;;1.58;;
20375;SDS011;10347;51.828;6.466;2023-07-22T13:38:01;4.57;;;2.03;;
20375;SDS011;10347;51.828;6.466;2023-07-22T13:40:26;2.88;;;1.60;;
20375;SDS011;10347;51.828;6.466;2023-07-22T13:42:52;3.95;;;2.00;;
20375;SDS011;10347;51.828;6.466;2023-07-22T13:45:17;2.97;;;1.85;;
20375;SDS011;10347;51.828;6.466;2023-07-22T13:47:43;2.50;;;1.70;;
20375;SDS011;10347;51.828;6.466;2023-07-22T13:50:09;2.17;;;1.98;;
20375;SDS011;10347;51.828;6.466;2023-07-22T13:52:34;3.45;;;2.00;;
20375;SDS011;10347;51.828;6.466;2023-07-22T13:55:00;1.77;;;1.60;;
20375;SDS011;10347;51.828;6.466;2023-07-22T13:57:26;2.75;;;1.88;;
20375;SDS011;10347;51.828;6.466;2023-07-22T13:59:52;2.20;;;1.70;;
20375;SDS011;10347;51.828;6.466;2023-07-22T14:02:18;3.25;;;2.10;;
20375;SDS011;10347;51.828;6.466;2023-07-22T14:04:44;2.50;;;1.77;;
20375;SDS011;10347;51.828;6.466;2023-07-22T14:07:09;3.15;;;1.75;;
20375;SDS011;10347;51.828;6.466;2023-07-22T14:09:35;3.45;;;1.92;;
20375;SDS011;10347;51.828;6.466;2023-07-22T14:12:00;1.70;;;1.60;;
20375;SDS011;10347;51.828;6.466;2023-07-22T14:14:26;2.05;;;1.75;;
20375;SDS011;10347;51.828;6.466;2023-07-22T14:16:54;1.73;;;1.63;;
20375;SDS011;10347;51.828;6.466;2023-07-22T14:19:20;5.43;;;1.70;;
20375;SDS011;10347;51.828;6.466;2023-07-22T14:21:46;2.30;;;1.70;;
20375;SDS011;10347;51.828;6.466;2023-07-22T14:24:11;2.55;;;2.17;;
20375;SDS011;10347;51.828;6.466;2023-07-22T14:26:37;1.80;;;1.70;;
20375;SDS011;10347;51.828;6.466;2023-07-22T14:29:02;3.50;;;2.10;;
20375;SDS011;10347;51.828;6.466;2023-07-22T14:31:28;1.92;;;1.73;;
20375;SDS011;10347;51.828;6.466;2023-07-22T14:33:54;1.73;;;1.63;;
20375;SDS011;10347;51.828;6.466;2023-07-22T14:36:19;3.03;;;1.90;;
20375;SDS011;10347;51.828;6.466;2023-07-22T14:38:45;1.75;;;1.65;;